Time;durP1;ratioP1;P1;durP2;ratioP2;P2;SDS_P1;SDS_P2;PMS_P1;PMS_P2;Temp;Humidity;BMP_temperature;BMP_pressure;BME280_temperature;BME280_humidity;BME280_pressure;Samples;Min_cycle;Max_cycle;Signal;HPM_P1;HPM_P2
2022/03/30 00:00:32;;;;;;;;;;;;;;;7.97;72.21;100814.53;5053708;28;20334;-36
2022/03/30 00:02:57;;;;;;;;;;;;;;;7.96;71.67;100820.94;5053626;28;19913;-36
2022/03/30 00:05:22;;;;;;;;;;;;;;;7.93;72.22;100826.75;5053667;28;19963;-36
2022/03/30 00:07:51;;;;;;;;;;;;;;;7.83;72.51;100826.38;5053576;28;19912;-36
2022/03/30 00:10:16;;;;;;;;;;;;;;;7.71;72.72;100831.63;5054329;28;19913;-36
2022/03/30 00:12:41;;;;;;;;;;;;;;;7.69;72.91;100827.47;5054173;28;19927;-36
2022/03/30 00:15:07;;;;;;;;;;;;;;;7.69;73.53;100822.09;5053767;28;19913;-36
2022/03/30 00:17:32;;;;;;;;;;;;;;;7.64;73.58;100822.72;5053678;28;19916;-33
2022/03/30 00:19:59;;;;;;;;;;;;;;;7.60;74.16;100816.09;5053980;28;20258;-33
2022/03/30 00:22:25;;;;;;;;;;;;;;;7.59;74.43;100819.84;5053444;28;19913;-33
2022/03/30 00:24:50;;;;;;;;;;;;;;;7.55;74.33;100812.41;5052339;28;20258;-33
2022/03/30 00:27:15;;;;;;;;;;;;;;;7.51;74.52;100816.53;5053544;28;19912;-33
2022/03/30 00:29:40;;;;;;;;;;;;;;;7.48;74.51;100820.50;5053584;28;20007;-35
2022/03/30 00:32:06;;;;;;;;;;;;;;;7.37;74.35;100819.28;5052133;28;19916;-34
2022/03/30 00:34:31;;;;;;;;;;;;;;;7.33;75.58;100812.69;5053575;28;19924;-34
2022/03/30 00:36:56;;;;;;;;;;;;;;;7.31;74.53;100813.91;5053146;28;19913;-34
2022/03/30 00:39:21;;;;;;;;;;;;;;;7.27;74.60;100816.22;5053373;28;19916;-34
2022/03/30 00:41:47;;;;;;;;;;;;;;;7.20;75.42;100816.19;5054154;28;19912;-34
2022/03/30 00:44:13;;;;;;;;;;;;;;;7.14;75.56;100808.16;5053148;28;20003;-34
2022/03/30 00:46:39;;;;;;;;;;;;;;;7.03;75.38;100812.31;5053591;28;19913;-34
2022/03/30 00:49:05;;;;;;;;;;;;;;;6.95;76.17;100807.13;5053112;28;19913;-33
2022/03/30 00:51:30;;;;;;;;;;;;;;;6.81;77.10;100800.13;5053186;28;20003;-34
2022/03/30 00:53:56;;;;;;;;;;;;;;;6.76;75.99;100798.03;5052799;28;19913;-34
2022/03/30 00:56:22;;;;;;;;;;;;;;;6.79;76.51;100805.72;5053217;28;19916;-34
2022/03/30 00:58:48;;;;;;;;;;;;;;;6.81;75.99;100794.75;5053479;28;20002;-34
2022/03/30 01:01:14;;;;;;;;;;;;;;;6.75;76.08;100800.94;5053118;28;20014;-34
2022/03/30 01:03:39;;;;;;;;;;;;;;;6.75;76.73;100806.31;5053403;28;19912;-34
2022/03/30 01:06:04;;;;;;;;;;;;;;;6.70;76.71;100804.25;5053971;28;19936;-34
2022/03/30 01:08:29;;;;;;;;;;;;;;;6.63;76.65;100801.53;5057002;28;19919;-34
2022/03/30 01:10:55;;;;;;;;;;;;;;;6.59;76.99;100802.19;5072258;28;19970;-34
2022/03/30 01:13:20;;;;;;;;;;;;;;;6.55;77.03;100795.56;5057100;28;19913;-34
2022/03/30 01:15:46;;;;;;;;;;;;;;;6.55;76.66;100795.56;5057852;28;20070;-34
2022/03/30 01:18:12;;;;;;;;;;;;;;;6.60;75.59;100787.72;5056779;28;19920;-34
2022/03/30 01:20:38;;;;;;;;;;;;;;;6.62;75.63;100782.94;5056710;28;20337;-34
2022/03/30 01:23:03;;;;;;;;;;;;;;;6.59;75.90;100792.28;5057140;28;19967;-34
2022/03/30 01:25:28;;;;;;;;;;;;;;;6.49;77.35;100786.47;5057274;28;19913;-34
2022/03/30 01:27:53;;;;;;;;;;;;;;;6.42;77.22;100794.50;5056769;28;19917;-34
2022/03/30 01:33:04;;;;;;;;;;;;;;;6.22;78.62;100793.66;5057188;28;19923;-34
2022/03/30 01:35:29;;;;;;;;;;;;;;;6.23;77.84;100789.94;5056772;28;19967;-34
2022/03/30 01:37:55;;;;;;;;;;;;;;;6.16;78.84;100786.44;5056661;28;19913;-34
2022/03/30 01:40:20;;;;;;;;;;;;;;;6.02;79.84;100784.72;5057074;28;20011;-34
2022/03/30 01:42:46;;;;;;;;;;;;;;;6.00;78.42;100787.59;5057013;28;20307;-34
2022/03/30 01:45:15;;;;;;;;;;;;;;;5.93;79.95;100784.91;5057305;28;19924;-34
2022/03/30 01:47:40;;;;;;;;;;;;;;;5.82;81.03;100790.84;5056538;28;19920;-34
2022/03/30 01:50:08;;;;;;;;;;;;;;;5.68;81.31;100783.75;5057181;28;19912;-34
2022/03/30 01:52:33;;;;;;;;;;;;;;;5.73;80.67;100777.78;5056347;28;19958;-34
2022/03/30 01:54:58;;;;;;;;;;;;;;;5.81;79.93;100773.09;5056343;28;19975;-34
2022/03/30 01:57:23;;;;;;;;;;;;;;;5.75;81.27;100778.41;5056178;28;20327;-34
2022/03/30 01:59:49;;;;;;;;;;;;;;;5.72;81.33;100766.25;5056118;28;20395;-34
2022/03/30 02:02:15;;;;;;;;;;;;;;;5.64;81.43;100761.84;5056161;28;19919;-34
2022/03/30 02:04:41;;;;;;;;;;;;;;;5.67;80.74;100764.16;5056412;28;20328;-34
2022/03/30 02:07:08;;;;;;;;;;;;;;;5.67;81.02;100760.66;5056304;28;19954;-34
2022/03/30 02:09:33;;;;;;;;;;;;;;;5.65;80.34;100752.78;5055700;28;19913;-34
2022/03/30 02:11:59;;;;;;;;;;;;;;;5.67;80.08;100760.66;5056284;28;19923;-34
2022/03/30 02:14:25;;;;;;;;;;;;;;;5.50;82.26;100754.78;5055677;28;20288;-34
2022/03/30 02:16:51;;;;;;;;;;;;;;;5.56;81.26;100753.16;5056406;28;19913;-34
2022/03/30 02:19:16;;;;;;;;;;;;;;;5.50;81.63;100745.91;5054286;28;19913;-34
2022/03/30 02:21:41;;;;;;;;;;;;;;;5.53;81.38;100738.31;5055569;28;19924;-34
2022/03/30 02:24:06;;;;;;;;;;;;;;;5.53;81.61;100738.31;5055794;28;20013;-34
2022/03/30 02:26:32;;;;;;;;;;;;;;;5.53;81.26;100732.13;5056069;28;20011;-34
2022/03/30 02:28:57;;;;;;;;;;;;;;;5.57;80.74;100728.84;5055446;28;19920;-34
2022/03/30 02:31:23;;;;;;;;;;;;;;;5.65;80.33;100725.13;5055958;28;19917;-34
2022/03/30 02:33:48;;;;;;;;;;;;;;;5.65;80.57;100715.22;5055544;28;19912;-34
2022/03/30 02:36:14;;;;;;;;;;;;;;;5.66;80.52;100713.34;5055866;28;19919;-34
2022/03/30 02:38:39;;;;;;;;;;;;;;;5.61;80.80;100723.88;5055774;28;20320;-34
2022/03/30 02:41:06;;;;;;;;;;;;;;;5.60;80.29;100714.19;5055692;28;19962;-34
2022/03/30 02:43:31;;;;;;;;;;;;;;;5.65;80.83;100714.41;5055669;28;20400;-34
2022/03/30 02:45:57;;;;;;;;;;;;;;;5.48;82.09;100707.75;5055395;28;19948;-34
2022/03/30 02:48:28;;;;;;;;;;;;;;;5.49;81.71;100709.41;5055029;28;19966;-34
2022/03/30 02:50:54;;;;;;;;;;;;;;;5.54;81.38;100706.94;5055011;28;19916;-34
2022/03/30 02:53:20;;;;;;;;;;;;;;;5.50;81.47;100706.50;5055179;28;19912;-34
2022/03/30 02:55:45;;;;;;;;;;;;;;;5.43;81.78;100705.66;5056051;28;19913;-34
2022/03/30 02:58:11;;;;;;;;;;;;;;;5.40;82.17;100704.19;5055042;28;19912;-34
2022/03/30 03:00:36;;;;;;;;;;;;;;;5.41;81.26;100694.28;5055351;28;20408;-34
2022/03/30 03:03:02;;;;;;;;;;;;;;;5.35;82.65;100695.94;5055038;28;20330;-34
2022/03/30 03:05:32;;;;;;;;;;;;;;;5.31;82.46;100696.53;5055059;28;19924;-34
2022/03/30 03:07:57;;;;;;;;;;;;;;;5.28;82.52;100705.00;5054658;28;19994;-34
2022/03/30 03:10:23;;;;;;;;;;;;;;;5.21;82.95;100702.25;5054964;28;20242;-34
2022/03/30 03:12:48;;;;;;;;;;;;;;;5.21;83.04;100699.59;5055370;28;20341;-34
2022/03/30 03:15:13;;;;;;;;;;;;;;;5.18;82.57;100691.97;5054988;28;19916;-34
2022/03/30 03:17:38;;;;;;;;;;;;;;;5.11;83.79;100691.91;5054504;28;19913;-34
2022/03/30 03:20:04;;;;;;;;;;;;;;;5.11;82.64;100691.91;5055498;28;19928;-34
2022/03/30 03:22:29;;;;;;;;;;;;;;;5.13;83.50;100689.03;5054625;28;19913;-34
2022/03/30 03:24:54;;;;;;;;;;;;;;;5.14;83.31;100685.34;5054575;28;19919;-34
2022/03/30 03:27:19;;;;;;;;;;;;;;;5.14;83.61;100678.13;5054382;28;20007;-34
2022/03/30 03:29:44;;;;;;;;;;;;;;;5.22;82.75;100681.63;5054893;28;19965;-34
2022/03/30 03:32:10;;;;;;;;;;;;;;;5.27;82.28;100682.72;5054469;28;19982;-34
2022/03/30 03:34:35;;;;;;;;;;;;;;;5.29;82.93;100683.34;5054484;28;19912;-34
2022/03/30 03:37:00;;;;;;;;;;;;;;;5.21;82.92;100675.44;5054504;28;19920;-34
2022/03/30 03:39:25;;;;;;;;;;;;;;;5.13;84.35;100672.97;5054073;28;19913;-34
2022/03/30 03:41:51;;;;;;;;;;;;;;;5.11;82.83;100667.78;5054681;28;20356;-38
2022/03/30 03:44:16;;;;;;;;;;;;;;;5.16;82.80;100677.91;5054406;28;19912;-34
2022/03/30 03:46:41;;;;;;;;;;;;;;;5.21;82.41;100675.44;5054343;28;19920;-34
2022/03/30 03:49:07;;;;;;;;;;;;;;;5.18;82.38;100667.81;5054711;28;19912;-34
2022/03/30 03:51:33;;;;;;;;;;;;;;;5.04;83.98;100671.47;5054301;28;19920;-34
2022/03/30 03:53:58;;;;;;;;;;;;;;;4.99;84.16;100665.88;5054180;28;19916;-34
2022/03/30 03:56:23;;;;;;;;;;;;;;;4.98;83.10;100673.09;5053916;28;19912;-34
2022/03/30 03:58:49;;;;;;;;;;;;;;;4.96;83.54;100667.09;5053996;28;19913;-34
2022/03/30 04:01:14;;;;;;;;;;;;;;;4.86;84.38;100672.81;5053994;28;19919;-34
2022/03/30 04:03:39;;;;;;;;;;;;;;;4.82;84.14;100670.72;5053890;28;20008;-34
2022/03/30 04:06:05;;;;;;;;;;;;;;;4.77;84.28;100674.00;5054179;28;20011;-34
2022/03/30 04:08:30;;;;;;;;;;;;;;;4.68;84.85;100666.31;5053856;28;19935;-34
2022/03/30 04:10:55;;;;;;;;;;;;;;;4.69;84.12;100666.13;5053788;28;20261;-34
2022/03/30 04:13:20;;;;;;;;;;;;;;;4.71;83.97;100657.88;5054188;28;20007;-34
2022/03/30 04:15:46;;;;;;;;;;;;;;;4.70;84.29;100666.97;5053495;28;19912;-34
2022/03/30 04:18:11;;;;;;;;;;;;;;;4.68;84.06;100663.63;5053883;28;19916;-34
2022/03/30 04:20:37;;;;;;;;;;;;;;;4.58;85.15;100664.81;5053929;28;20307;-34
2022/03/30 04:23:02;;;;;;;;;;;;;;;4.61;83.97;100664.41;5053869;28;19919;-34
2022/03/30 04:25:27;;;;;;;;;;;;;;;4.61;83.68;100667.09;5054331;28;20367;-34
2022/03/30 04:27:53;;;;;;;;;;;;;;;4.59;83.65;100666.47;5053682;28;19920;-34
2022/03/30 04:30:19;;;;;;;;;;;;;;;4.63;82.99;100661.53;5053726;28;19951;-34
2022/03/30 04:32:44;;;;;;;;;;;;;;;4.55;84.23;100664.38;5053283;28;19921;-34
2022/03/30 04:35:11;;;;;;;;;;;;;;;4.46;85.18;100668.25;5053050;28;20262;-34
2022/03/30 04:37:36;;;;;;;;;;;;;;;4.49;83.66;100662.47;5053034;28;19913;-34
2022/03/30 04:40:02;;;;;;;;;;;;;;;4.51;82.92;100657.75;5052586;28;20070;-34
2022/03/30 04:42:27;;;;;;;;;;;;;;;4.54;82.53;100663.56;5052389;28;19952;-34
2022/03/30 04:44:53;;;;;;;;;;;;;;;4.57;82.25;100667.69;5053320;28;20008;-34
2022/03/30 04:47:18;;;;;;;;;;;;;;;4.59;82.14;100660.31;5053030;28;19920;-34
2022/03/30 04:49:43;;;;;;;;;;;;;;;4.59;82.02;100665.66;5053281;28;20002;-34
2022/03/30 04:52:09;;;;;;;;;;;;;;;4.52;83.21;100673.63;5052777;28;20004;-34
2022/03/30 04:54:34;;;;;;;;;;;;;;;4.49;83.23;100670.50;5053322;28;20102;-34
2022/03/30 04:57:00;;;;;;;;;;;;;;;4.46;82.29;100669.06;5053543;28;20429;-34
2022/03/30 04:59:25;;;;;;;;;;;;;;;4.44;83.33;100673.81;5053364;28;19974;-34
2022/03/30 05:01:50;;;;;;;;;;;;;;;4.42;82.52;100675.00;5053332;28;19913;-34
2022/03/30 05:04:15;;;;;;;;;;;;;;;4.36;82.17;100673.94;5052677;28;19919;-34
2022/03/30 05:06:40;;;;;;;;;;;;;;;4.33;82.48;100663.59;5052983;28;20316;-34
2022/03/30 05:09:06;;;;;;;;;;;;;;;4.32;83.01;100665.44;5052919;28;19913;-34
2022/03/30 05:11:31;;;;;;;;;;;;;;;4.24;83.61;100657.56;5053009;28;19920;-34
2022/03/30 05:13:56;;;;;;;;;;;;;;;4.19;83.34;100657.31;5053315;28;19923;-34
2022/03/30 05:16:22;;;;;;;;;;;;;;;4.04;84.74;100652.03;5051338;28;19985;-34
2022/03/30 05:18:47;;;;;;;;;;;;;;;4.00;84.39;100658.81;5052867;28;19917;-34
2022/03/30 05:21:12;;;;;;;;;;;;;;;3.84;87.04;100657.22;5053317;28;19920;-34
2022/03/30 05:23:37;;;;;;;;;;;;;;;3.86;85.80;100655.19;5053334;28;19940;-34
2022/03/30 05:26:03;;;;;;;;;;;;;;;3.83;86.12;100654.75;5052973;28;19943;-34
2022/03/30 05:28:29;;;;;;;;;;;;;;;3.77;87.46;100652.84;5052750;28;19913;-34
2022/03/30 05:30:54;;;;;;;;;;;;;;;3.78;86.89;100652.63;5052768;28;19913;-34
2022/03/30 05:33:20;;;;;;;;;;;;;;;3.73;87.37;100648.88;5052794;28;19967;-34
2022/03/30 05:35:48;;;;;;;;;;;;;;;3.76;86.66;100652.00;5053565;28;19912;-34
2022/03/30 05:38:13;;;;;;;;;;;;;;;3.78;87.73;100649.13;5052463;28;19920;-34
2022/03/30 05:40:38;;;;;;;;;;;;;;;3.72;88.56;100652.59;5053154;28;20349;-34
2022/03/30 05:43:04;;;;;;;;;;;;;;;3.69;88.45;100652.97;5052716;28;19959;-34
2022/03/30 05:45:29;;;;;;;;;;;;;;;3.67;87.68;100655.84;5052372;28;19967;-34
2022/03/30 05:47:54;;;;;;;;;;;;;;;3.66;87.90;100639.94;5052754;28;20288;-34
2022/03/30 05:50:21;;;;;;;;;;;;;;;3.68;88.47;100649.47;5052425;28;19913;-34
2022/03/30 05:52:47;;;;;;;;;;;;;;;3.70;87.98;100641.22;5053970;28;19913;-34
2022/03/30 05:55:12;;;;;;;;;;;;;;;3.75;88.17;100650.34;5056718;28;19913;-34
2022/03/30 05:57:37;;;;;;;;;;;;;;;3.75;88.23;100642.31;5057082;28;20368;-34
2022/03/30 06:00:06;;;;;;;;;;;;;;;3.74;89.08;100648.69;5056266;28;19912;-34
2022/03/30 06:02:31;;;;;;;;;;;;;;;3.73;89.60;100647.03;5056516;28;20269;-34
2022/03/30 06:04:57;;;;;;;;;;;;;;;3.83;89.44;100652.88;5056019;28;19913;-34
2022/03/30 06:07:23;;;;;;;;;;;;;;;3.74;89.96;100653.22;5055964;28;19913;-34
2022/03/30 06:09:48;;;;;;;;;;;;;;;3.81;89.24;100652.28;5056698;28;19919;-34
2022/03/30 06:12:14;;;;;;;;;;;;;;;3.85;89.25;100660.72;5055726;28;19920;-34
2022/03/30 06:14:39;;;;;;;;;;;;;;;3.90;88.44;100657.47;5056574;28;19913;-34
2022/03/30 06:17:06;;;;;;;;;;;;;;;3.92;89.07;100652.78;5055636;28;19913;-34
2022/03/30 06:19:34;;;;;;;;;;;;;;;3.99;88.66;100653.66;5056147;28;19913;-34
2022/03/30 06:22:08;;;;;;;;;;;;;;;4.07;88.33;100650.84;5055734;28;19983;-34
2022/03/30 06:24:38;;;;;;;;;;;;;;;4.12;88.64;100648.41;5055464;28;20245;-34
2022/03/30 06:27:04;;;;;;;;;;;;;;;4.25;88.01;100648.53;5055568;28;19917;-34
2022/03/30 06:29:30;;;;;;;;;;;;;;;4.22;88.78;100643.56;5055846;28;20340;-34
2022/03/30 06:31:55;;;;;;;;;;;;;;;4.36;87.89;100657.88;5055299;28;19965;-35
2022/03/30 06:34:20;;;;;;;;;;;;;;;4.51;87.27;100655.91;5055399;28;20376;-34
2022/03/30 06:36:45;;;;;;;;;;;;;;;4.53;87.58;100653.84;5055554;28;20277;-34
2022/03/30 06:39:10;;;;;;;;;;;;;;;4.54;86.85;100658.22;5055092;28;19916;-34
2022/03/30 06:41:36;;;;;;;;;;;;;;;4.64;86.95;100660.53;5055579;28;19912;-34
2022/03/30 06:44:01;;;;;;;;;;;;;;;4.71;86.63;100665.94;5056311;28;19917;-34
2022/03/30 06:46:28;;;;;;;;;;;;;;;4.84;86.13;100668.69;5055592;28;19986;-35
2022/03/30 06:48:54;;;;;;;;;;;;;;;4.93;85.96;100667.50;5055550;28;19950;-34
2022/03/30 06:51:19;;;;;;;;;;;;;;;4.87;85.64;100669.09;5055711;28;20407;-35
2022/03/30 06:53:44;;;;;;;;;;;;;;;4.97;85.54;100662.56;5055579;28;20364;-35
2022/03/30 06:56:09;;;;;;;;;;;;;;;4.88;85.85;100669.94;5055130;28;20323;-34
2022/03/30 06:58:35;;;;;;;;;;;;;;;4.93;85.37;100663.97;5055218;28;20362;-35
2022/03/30 07:01:00;;;;;;;;;;;;;;;5.02;85.73;100662.78;5055203;28;19913;-35
2022/03/30 07:03:27;;;;;;;;;;;;;;;5.03;85.88;100651.06;5054358;28;19935;-35
2022/03/30 07:05:53;;;;;;;;;;;;;;;5.11;85.05;100653.56;5054801;28;20323;-35
2022/03/30 07:11:02;;;;;;;;;;;;;;;5.22;85.02;100650.31;5054854;28;19929;-35
2022/03/30 07:13:28;;;;;;;;;;;;;;;5.18;84.77;100649.06;5054669;28;20306;-35
2022/03/30 07:15:53;;;;;;;;;;;;;;;5.27;85.37;100653.22;5054464;28;19948;-34
2022/03/30 07:18:19;;;;;;;;;;;;;;;5.40;85.20;100652.44;5053260;28;19931;-35
2022/03/30 07:20:45;;;;;;;;;;;;;;;5.36;84.72;100646.63;5054596;28;20317;-34
2022/03/30 07:23:10;;;;;;;;;;;;;;;5.43;84.59;100652.84;5054158;28;20015;-35
2022/03/30 07:25:36;;;;;;;;;;;;;;;5.53;83.83;100652.47;5054705;28;19916;-35
2022/03/30 07:28:03;;;;;;;;;;;;;;;5.58;83.92;100644.66;5054273;28;19916;-35
2022/03/30 07:30:29;;;;;;;;;;;;;;;5.73;84.06;100647.16;5054574;28;20322;-35
2022/03/30 07:32:56;;;;;;;;;;;;;;;5.83;83.43;100642.19;5054530;28;20256;-35
2022/03/30 07:35:22;;;;;;;;;;;;;;;5.83;82.77;100649.44;5054188;28;19916;-35
2022/03/30 07:37:48;;;;;;;;;;;;;;;5.88;82.96;100655.00;5054173;28;19956;-34
2022/03/30 07:40:16;;;;;;;;;;;;;;;5.89;83.23;100649.44;5053328;28;19939;-35
2022/03/30 07:42:42;;;;;;;;;;;;;;;6.05;82.92;100650.09;5054029;28;19999;-35
2022/03/30 07:45:08;;;;;;;;;;;;;;;6.17;83.01;100645.78;5054881;28;20021;-34
2022/03/30 07:47:33;;;;;;;;;;;;;;;6.16;81.98;100644.13;5053614;28;19913;-35
2022/03/30 07:49:58;;;;;;;;;;;;;;;6.26;82.14;100644.53;5053985;28;19935;-35
2022/03/30 07:52:24;;;;;;;;;;;;;;;6.40;81.72;100640.81;5053536;28;19913;-34
2022/03/30 07:54:49;;;;;;;;;;;;;;;6.56;81.41;100641.41;5053856;28;20380;-35
2022/03/30 07:57:15;;;;;;;;;;;;;;;6.68;80.87;100645.06;5053554;28;19928;-34
2022/03/30 07:59:40;;;;;;;;;;;;;;;6.76;80.67;100638.66;5054297;28;20003;-34
2022/03/30 08:02:06;;;;;;;;;;;;;;;6.82;79.82;100649.38;5053939;28;20011;-35
2022/03/30 08:04:31;;;;;;;;;;;;;;;6.91;79.74;100633.84;5053755;28;19923;-35
2022/03/30 08:06:57;;;;;;;;;;;;;;;6.94;79.37;100639.66;5053654;28;20266;-34
2022/03/30 08:09:22;;;;;;;;;;;;;;;6.99;78.74;100651.63;5053818;28;20353;-35
2022/03/30 08:11:47;;;;;;;;;;;;;;;6.99;78.26;100651.63;5053509;28;19924;-34
2022/03/30 08:14:13;;;;;;;;;;;;;;;7.05;78.15;100648.91;5053494;28;19970;-34
2022/03/30 08:16:39;;;;;;;;;;;;;;;7.17;79.24;100649.91;5053095;28;20011;-35
2022/03/30 08:19:05;;;;;;;;;;;;;;;7.29;78.00;100650.06;5053551;28;19921;-34
2022/03/30 08:24:14;;;;;;;;;;;;;;;7.43;77.46;100648.94;5053168;28;20337;-35
2022/03/30 08:26:41;;;;;;;;;;;;;;;7.45;76.34;100648.72;5053324;28;19913;-35
2022/03/30 08:29:08;;;;;;;;;;;;;;;7.48;77.35;100656.38;5053376;28;19913;-35
2022/03/30 08:31:34;;;;;;;;;;;;;;;7.65;77.50;100648.59;5053388;28;19913;-35
2022/03/30 08:33:59;;;;;;;;;;;;;;;7.73;76.76;100642.97;5053199;28;19925;-35
2022/03/30 08:36:26;;;;;;;;;;;;;;;7.87;76.87;100644.53;5052994;28;19913;-34
2022/03/30 08:38:51;;;;;;;;;;;;;;;7.88;76.52;100643.50;5053307;28;20004;-35
2022/03/30 08:41:16;;;;;;;;;;;;;;;7.92;75.94;100642.00;5053735;28;19948;-34
2022/03/30 08:43:42;;;;;;;;;;;;;;;7.86;75.50;100642.06;5053000;28;20352;-35
2022/03/30 08:46:07;;;;;;;;;;;;;;;7.95;75.81;100636.22;5053372;28;20368;-34
2022/03/30 08:48:32;;;;;;;;;;;;;;;8.01;74.59;100637.19;5051953;28;19917;-34
2022/03/30 08:50:59;;;;;;;;;;;;;;;7.99;74.62;100632.00;5053179;28;20239;-35
2022/03/30 08:53:26;;;;;;;;;;;;;;;8.05;74.84;100626.78;5053171;28;19958;-35
2022/03/30 08:55:51;;;;;;;;;;;;;;;8.02;74.42;100629.94;5053052;28;20416;-35
2022/03/30 08:58:16;;;;;;;;;;;;;;;8.13;74.24;100626.53;5053018;28;19939;-34
2022/03/30 09:00:41;;;;;;;;;;;;;;;8.20;73.79;100627.31;5052800;28;20024;-35
2022/03/30 09:03:07;;;;;;;;;;;;;;;8.28;73.70;100629.69;5053487;28;19912;-35
2022/03/30 09:05:35;;;;;;;;;;;;;;;8.35;73.80;100621.56;5053086;28;19913;-35
2022/03/30 09:08:06;;;;;;;;;;;;;;;8.49;73.50;100623.09;5052678;28;19920;-34
2022/03/30 09:10:31;;;;;;;;;;;;;;;8.59;73.44;100626.13;5053165;28;20284;-35
2022/03/30 09:12:57;;;;;;;;;;;;;;;8.72;73.43;100622.47;5052926;28;19928;-35
2022/03/30 09:15:23;;;;;;;;;;;;;;;8.71;72.33;100612.72;5052768;28;19965;-35
2022/03/30 09:17:48;;;;;;;;;;;;;;;8.84;71.86;100617.97;5052809;28;19999;-35
2022/03/30 09:20:16;;;;;;;;;;;;;;;8.89;72.45;100610.03;5052844;28;19916;-44
2022/03/30 09:22:45;;;;;;;;;;;;;;;9.06;71.49;100612.94;5052415;28;19957;-35
2022/03/30 09:25:11;;;;;;;;;;;;;;;9.10;70.46;100610.63;5052713;28;19913;-35
2022/03/30 09:27:41;;;;;;;;;;;;;;;9.17;70.11;100604.06;5054468;28;19916;-35
2022/03/30 09:30:07;;;;;;;;;;;;;;;9.29;70.29;100599.56;5057433;28;19913;-35
2022/03/30 09:32:32;;;;;;;;;;;;;;;9.48;71.87;100594.13;5056553;28;19966;-35
2022/03/30 09:34:58;;;;;;;;;;;;;;;9.60;68.66;100602.25;5056342;28;19913;-35
2022/03/30 09:37:23;;;;;;;;;;;;;;;9.59;68.40;100597.91;5056244;28;20353;-35
2022/03/30 09:39:49;;;;;;;;;;;;;;;9.66;69.26;100588.66;5056738;28;19920;-35
2022/03/30 09:42:16;;;;;;;;;;;;;;;9.78;68.00;100591.38;5056371;28;19913;-35
2022/03/30 09:44:49;;;;;;;;;;;;;;;9.88;67.40;100585.41;5056443;28;19978;-35
2022/03/30 09:47:14;;;;;;;;;;;;;;;10.03;68.84;100583.91;5056817;28;20327;-35
2022/03/30 09:49:40;;;;;;;;;;;;;;;10.13;67.07;100579.78;5056300;28;19913;-35
2022/03/30 09:52:14;;;;;;;;;;;;;;;10.04;67.99;100582.00;5056521;28;19919;-35
2022/03/30 09:54:40;;;;;;;;;;;;;;;10.03;66.82;100583.06;5055919;28;19920;-35
2022/03/30 09:57:13;;;;;;;;;;;;;;;10.00;65.27;100584.38;5056774;28;19952;-35
2022/03/30 09:59:58;;;;;;;;;;;;;;;10.05;66.15;100576.41;5056338;28;19913;-35
2022/03/30 10:02:24;;;;;;;;;;;;;;;10.21;67.20;100568.66;5056628;28;19920;-35
2022/03/30 10:04:50;;;;;;;;;;;;;;;10.24;66.28;100565.50;5055804;28;20442;-35
2022/03/30 10:07:15;;;;;;;;;;;;;;;10.28;65.78;100567.47;5055824;28;19917;-35
2022/03/30 10:09:42;;;;;;;;;;;;;;;10.45;65.86;100569.50;5056511;28;20038;-35
2022/03/30 10:12:08;;;;;;;;;;;;;;;10.53;65.44;100567.22;5056296;28;19922;-35
2022/03/30 10:14:34;;;;;;;;;;;;;;;10.70;66.18;100561.09;5056101;28;20301;-35
2022/03/30 10:16:59;;;;;;;;;;;;;;;10.90;66.03;100564.22;5055888;28;20384;-35
2022/03/30 10:19:24;;;;;;;;;;;;;;;11.00;64.98;100558.19;5056237;28;19913;-35
2022/03/30 10:22:08;;;;;;;;;;;;;;;10.95;64.98;100558.91;5056330;28;19913;-35
2022/03/30 10:24:39;;;;;;;;;;;;;;;10.79;64.15;100556.97;5055529;28;19912;-35
2022/03/30 10:27:23;;;;;;;;;;;;;;;10.82;64.37;100554.59;5056281;28;20321;-35
2022/03/30 10:29:53;;;;;;;;;;;;;;;10.52;62.11;100560.19;5055877;28;20334;-35
2022/03/30 10:32:20;;;;;;;;;;;;;;;10.48;63.87;100550.91;5055667;28;19970;-35
2022/03/30 10:34:50;;;;;;;;;;;;;;;10.52;63.01;100554.78;5055516;28;20356;-35
2022/03/30 10:37:22;;;;;;;;;;;;;;;10.60;62.64;100544.66;5055925;28;19919;-35
2022/03/30 10:39:53;;;;;;;;;;;;;;;10.69;62.22;100548.66;5054729;28;19913;-35
2022/03/30 10:42:18;;;;;;;;;;;;;;;10.92;62.65;100542.31;5055644;28;19970;-35
2022/03/30 10:44:44;;;;;;;;;;;;;;;11.19;63.46;100538.00;5055793;28;19920;-35
2022/03/30 10:47:20;;;;;;;;;;;;;;;11.22;59.92;100540.19;5054927;28;19919;-35
2022/03/30 10:49:54;;;;;;;;;;;;;;;11.20;61.24;100531.50;5055146;28;19943;-35
2022/03/30 10:52:38;;;;;;;;;;;;;;;11.40;62.69;100531.06;5055424;28;19913;-35
2022/03/30 10:55:12;;;;;;;;;;;;;;;11.53;61.08;100525.34;5055299;28;20343;-35
2022/03/30 10:57:47;;;;;;;;;;;;;;;11.60;59.93;100523.28;5054855;28;19913;-35
2022/03/30 11:00:17;;;;;;;;;;;;;;;11.48;59.30;100519.84;5054851;28;20376;-35
2022/03/30 11:02:42;;;;;;;;;;;;;;;11.33;59.67;100522.28;5053644;28;20352;-35
2022/03/30 11:05:09;;;;;;;;;;;;;;;11.40;59.40;100512.09;5054987;28;19923;-35
2022/03/30 11:07:34;;;;;;;;;;;;;;;11.55;60.91;100504.22;5054916;28;19912;-35
2022/03/30 11:10:17;;;;;;;;;;;;;;;11.72;58.77;100498.84;5055105;28;19913;-35
2022/03/30 11:12:56;;;;;;;;;;;;;;;11.82;58.22;100500.91;5055738;28;19987;-35
2022/03/30 11:15:22;;;;;;;;;;;;;;;11.94;59.73;100490.78;5054406;28;20015;-35
2022/03/30 11:17:47;;;;;;;;;;;;;;;12.03;58.21;100494.72;5054310;28;19956;-35
2022/03/30 11:20:14;;;;;;;;;;;;;;;11.92;58.08;100484.00;5054580;28;19913;-35
2022/03/30 11:22:44;;;;;;;;;;;;;;;11.93;59.07;100489.16;5054949;28;20015;-35
2022/03/30 11:25:13;;;;;;;;;;;;;;;11.79;57.94;100482.41;5054831;28;19913;-35
2022/03/30 11:27:39;;;;;;;;;;;;;;;11.73;58.39;100476.09;5054407;28;20357;-35
2022/03/30 11:30:17;;;;;;;;;;;;;;;11.82;59.59;100485.47;5054787;28;20281;-35
2022/03/30 11:32:42;;;;;;;;;;;;;;;12.01;58.19;100475.19;5054690;28;19999;-35
2022/03/30 11:35:10;;;;;;;;;;;;;;;12.08;57.94;100478.53;5054242;28;20449;-35
2022/03/30 11:37:36;;;;;;;;;;;;;;;12.16;57.55;100479.19;5054090;28;20380;-35
2022/03/30 11:40:04;;;;;;;;;;;;;;;12.24;58.14;100467.88;5054626;28;19917;-35
2022/03/30 11:42:30;;;;;;;;;;;;;;;12.35;57.21;100469.69;5053936;28;20296;-35
2022/03/30 11:45:13;;;;;;;;;;;;;;;12.57;57.55;100467.78;5054281;28;19916;-35
2022/03/30 11:47:44;;;;;;;;;;;;;;;12.54;56.54;100449.31;5054419;28;20277;-35
2022/03/30 11:50:10;;;;;;;;;;;;;;;12.69;57.69;100450.53;5054216;28;19991;-35
2022/03/30 11:52:35;;;;;;;;;;;;;;;12.80;56.95;100449.59;5054283;28;20391;-35
2022/03/30 11:55:00;;;;;;;;;;;;;;;12.85;56.00;100449.63;5053979;28;19955;-35
2022/03/30 11:57:26;;;;;;;;;;;;;;;12.76;55.77;100453.88;5054380;28;20258;-35
2022/03/30 11:59:55;;;;;;;;;;;;;;;12.76;54.59;100448.47;5054228;28;20015;-35
2022/03/30 12:02:22;;;;;;;;;;;;;;;12.78;54.88;100440.88;5053825;28;19958;-35
2022/03/30 12:04:47;;;;;;;;;;;;;;;12.89;55.47;100438.03;5054167;28;19912;-35
2022/03/30 12:07:16;;;;;;;;;;;;;;;12.86;52.13;100443.94;5054283;28;19919;-35
2022/03/30 12:09:45;;;;;;;;;;;;;;;12.82;53.48;100439.28;5054438;28;20000;-35
2022/03/30 12:12:11;;;;;;;;;;;;;;;12.62;53.22;100442.59;5054149;28;19916;-35
2022/03/30 12:14:36;;;;;;;;;;;;;;;12.71;53.64;100445.69;5053864;28;19982;-35
2022/03/30 12:17:04;;;;;;;;;;;;;;;12.69;53.94;100431.53;5053321;28;20385;-35
2022/03/30 12:19:29;;;;;;;;;;;;;;;12.87;54.30;100439.34;5053915;28;20303;-35
2022/03/30 12:21:54;;;;;;;;;;;;;;;12.89;53.57;100432.59;5053574;28;19913;-35
2022/03/30 12:24:22;;;;;;;;;;;;;;;12.97;51.68;100427.75;5053591;28;20414;-35
2022/03/30 12:26:51;;;;;;;;;;;;;;;12.91;52.46;100428.81;5053942;28;19912;-35
2022/03/30 12:29:17;;;;;;;;;;;;;;;13.05;53.88;100416.44;5053732;28;19919;-35
2022/03/30 12:31:45;;;;;;;;;;;;;;;13.21;53.09;100412.78;5053327;28;20275;-35
2022/03/30 12:34:14;;;;;;;;;;;;;;;13.43;52.43;100407.31;5053045;28;20282;-35
2022/03/30 12:36:41;;;;;;;;;;;;;;;13.54;50.50;100403.56;5053406;28;19917;-35
2022/03/30 12:39:15;;;;;;;;;;;;;;;13.33;49.93;100405.31;5053327;28;19913;-35
2022/03/30 12:41:40;;;;;;;;;;;;;;;13.47;50.69;100400.28;5053335;28;19952;-35
2022/03/30 12:44:05;;;;;;;;;;;;;;;13.67;51.62;100404.22;5053155;28;19952;-35
2022/03/30 12:46:34;;;;;;;;;;;;;;;13.66;52.16;100392.50;5053210;28;19920;-35
2022/03/30 12:49:08;;;;;;;;;;;;;;;13.59;50.93;100390.03;5053378;28;19958;-35